sensor_id;sensor_type;location;lat;lon;timestamp;P1;durP1;ratioP1;P2;durP2;ratioP2
65368;SDS011;51970;53.484;49.488;2023-09-08T00:01:02;3.85;;;1.83;;
65368;SDS011;51970;53.484;49.488;2023-09-08T00:03:28;6.38;;;2.10;;
65368;SDS011;51970;53.484;49.488;2023-09-08T00:05:54;4.25;;;1.73;;
65368;SDS011;51970;53.484;49.488;2023-09-08T00:08:20;4.03;;;1.63;;
65368;SDS011;51970;53.484;49.488;2023-09-08T00:10:47;4.28;;;1.90;;
65368;SDS011;51970;53.484;49.488;2023-09-08T00:13:13;4.65;;;1.88;;
65368;SDS011;51970;53.484;49.488;2023-09-08T00:15:39;6.75;;;2.22;;
65368;SDS011;51970;53.484;49.488;2023-09-08T00:18:05;4.75;;;1.83;;
65368;SDS011;51970;53.484;49.488;2023-09-08T00:20:31;5.35;;;2.70;;
65368;SDS011;51970;53.484;49.488;2023-09-08T00:22:57;4.20;;;2.55;;
65368;SDS011;51970;53.484;49.488;2023-09-08T00:25:24;4.68;;;1.98;;
65368;SDS011;51970;53.484;49.488;2023-09-08T00:27:50;3.85;;;1.20;;
65368;SDS011;51970;53.484;49.488;2023-09-08T00:30:16;5.40;;;2.42;;
65368;SDS011;51970;53.484;49.488;2023-09-08T00:32:42;6.78;;;3.10;;
65368;SDS011;51970;53.484;49.488;2023-09-08T00:35:10;9.70;;;5.78;;
65368;SDS011;51970;53.484;49.488;2023-09-08T00:37:39;11.07;;;7.10;;
65368;SDS011;51970;53.484;49.488;2023-09-08T00:40:06;10.77;;;6.72;;
65368;SDS011;51970;53.484;49.488;2023-09-08T00:42:34;13.88;;;9.20;;
65368;SDS011;51970;53.484;49.488;2023-09-08T00:45:00;22.42;;;14.80;;
65368;SDS011;51970;53.484;49.488;2023-09-08T00:47:26;23.85;;;15.07;;
65368;SDS011;51970;53.484;49.488;2023-09-08T00:49:52;29.42;;;17.17;;
65368;SDS011;51970;53.484;49.488;2023-09-08T00:52:19;50.90;;;29.15;;
65368;SDS011;51970;53.484;49.488;2023-09-08T00:54:45;21.63;;;14.13;;
65368;SDS011;51970;53.484;49.488;2023-09-08T00:57:11;18.88;;;10.73;;
65368;SDS011;51970;53.484;49.488;2023-09-08T00:59:38;44.58;;;23.13;;
65368;SDS011;51970;53.484;49.488;2023-09-08T01:02:05;61.40;;;32.50;;
65368;SDS011;51970;53.484;49.488;2023-09-08T01:04:31;85.53;;;50.38;;
65368;SDS011;51970;53.484;49.488;2023-09-08T01:06:59;97.25;;;45.17;;
65368;SDS011;51970;53.484;49.488;2023-09-08T01:09:25;93.80;;;51.30;;
65368;SDS011;51970;53.484;49.488;2023-09-08T01:11:53;100.18;;;60.97;;
65368;SDS011;51970;53.484;49.488;2023-09-08T01:14:21;84.05;;;47.83;;
65368;SDS011;51970;53.484;49.488;2023-09-08T01:16:47;61.95;;;36.50;;
65368;SDS011;51970;53.484;49.488;2023-09-08T01:19:14;69.45;;;42.40;;
65368;SDS011;51970;53.484;49.488;2023-09-08T01:27:38;10.90;;;6.18;;
65368;SDS011;51970;53.484;49.488;2023-09-08T01:30:06;16.77;;;8.98;;
65368;SDS011;51970;53.484;49.488;2023-09-08T01:32:33;5.22;;;2.10;;
65368;SDS011;51970;53.484;49.488;2023-09-08T01:35:00;9.07;;;3.50;;
65368;SDS011;51970;53.484;49.488;2023-09-08T01:37:26;7.28;;;2.80;;
65368;SDS011;51970;53.484;49.488;2023-09-08T01:39:52;5.53;;;1.73;;
65368;SDS011;51970;53.484;49.488;2023-09-08T01:42:19;4.90;;;1.77;;
65368;SDS011;51970;53.484;49.488;2023-09-08T01:44:45;6.05;;;2.97;;
65368;SDS011;51970;53.484;49.488;2023-09-08T01:47:11;7.82;;;3.42;;
65368;SDS011;51970;53.484;49.488;2023-09-08T01:49:37;7.00;;;3.67;;
65368;SDS011;51970;53.484;49.488;2023-09-08T01:52:03;10.93;;;5.57;;
65368;SDS011;51970;53.484;49.488;2023-09-08T01:54:30;10.40;;;5.93;;
65368;SDS011;51970;53.484;49.488;2023-09-08T01:56:56;10.80;;;5.22;;
65368;SDS011;51970;53.484;49.488;2023-09-08T01:59:22;10.10;;;6.43;;
65368;SDS011;51970;53.484;49.488;2023-09-08T02:01:48;11.93;;;6.75;;
65368;SDS011;51970;53.484;49.488;2023-09-08T02:04:14;9.07;;;4.70;;
65368;SDS011;51970;53.484;49.488;2023-09-08T02:06:40;8.65;;;3.28;;
65368;SDS011;51970;53.484;49.488;2023-09-08T02:09:07;9.75;;;3.20;;
65368;SDS011;51970;53.484;49.488;2023-09-08T02:11:35;7.90;;;3.50;;
65368;SDS011;51970;53.484;49.488;2023-09-08T02:14:01;7.90;;;3.92;;
65368;SDS011;51970;53.484;49.488;2023-09-08T02:16:27;8.85;;;4.35;;
65368;SDS011;51970;53.484;49.488;2023-09-08T02:18:54;6.57;;;3.58;;
65368;SDS011;51970;53.484;49.488;2023-09-08T02:21:20;7.47;;;3.53;;
65368;SDS011;51970;53.484;49.488;2023-09-08T02:23:47;7.45;;;2.63;;
65368;SDS011;51970;53.484;49.488;2023-09-08T02:26:13;7.05;;;3.33;;
65368;SDS011;51970;53.484;49.488;2023-09-08T02:28:39;7.47;;;3.00;;
65368;SDS011;51970;53.484;49.488;2023-09-08T02:31:05;5.85;;;2.72;;
65368;SDS011;51970;53.484;49.488;2023-09-08T02:33:31;6.10;;;2.10;;
65368;SDS011;51970;53.484;49.488;2023-09-08T02:36:04;8.30;;;3.22;;
65368;SDS011;51970;53.484;49.488;2023-09-08T02:38:31;4.80;;;1.80;;
65368;SDS011;51970;53.484;49.488;2023-09-08T02:40:58;6.35;;;2.53;;
65368;SDS011;51970;53.484;49.488;2023-09-08T02:43:24;5.82;;;2.20;;
65368;SDS011;51970;53.484;49.488;2023-09-08T02:45:50;12.43;;;2.97;;
65368;SDS011;51970;53.484;49.488;2023-09-08T02:48:16;7.97;;;2.72;;
65368;SDS011;51970;53.484;49.488;2023-09-08T02:50:43;6.93;;;2.95;;
65368;SDS011;51970;53.484;49.488;2023-09-08T02:53:09;7.53;;;2.50;;
65368;SDS011;51970;53.484;49.488;2023-09-08T02:55:35;7.70;;;2.78;;
65368;SDS011;51970;53.484;49.488;2023-09-08T02:58:01;7.40;;;3.17;;
65368;SDS011;51970;53.484;49.488;2023-09-08T03:00:27;8.57;;;2.70;;
65368;SDS011;51970;53.484;49.488;2023-09-08T03:02:53;5.03;;;2.33;;
65368;SDS011;51970;53.484;49.488;2023-09-08T03:05:20;7.10;;;2.88;;
65368;SDS011;51970;53.484;49.488;2023-09-08T03:07:49;7.68;;;2.55;;
65368;SDS011;51970;53.484;49.488;2023-09-08T03:10:15;8.82;;;2.70;;
65368;SDS011;51970;53.484;49.488;2023-09-08T03:12:41;14.32;;;3.15;;
65368;SDS011;51970;53.484;49.488;2023-09-08T03:15:08;11.50;;;3.22;;
65368;SDS011;51970;53.484;49.488;2023-09-08T03:17:34;12.52;;;4.15;;
65368;SDS011;51970;53.484;49.488;2023-09-08T03:20:00;11.43;;;3.65;;
65368;SDS011;51970;53.484;49.488;2023-09-08T03:22:27;12.10;;;4.43;;
65368;SDS011;51970;53.484;49.488;2023-09-08T03:24:53;13.77;;;3.85;;
65368;SDS011;51970;53.484;49.488;2023-09-08T03:27:19;16.60;;;4.50;;
65368;SDS011;51970;53.484;49.488;2023-09-08T03:29:45;13.20;;;3.83;;
65368;SDS011;51970;53.484;49.488;2023-09-08T03:32:11;14.60;;;4.20;;
65368;SDS011;51970;53.484;49.488;2023-09-08T03:34:37;9.68;;;4.70;;
65368;SDS011;51970;53.484;49.488;2023-09-08T03:37:05;11.50;;;4.35;;
65368;SDS011;51970;53.484;49.488;2023-09-08T03:39:31;15.38;;;6.25;;
65368;SDS011;51970;53.484;49.488;2023-09-08T03:41:57;14.20;;;5.57;;
65368;SDS011;51970;53.484;49.488;2023-09-08T03:44:23;15.02;;;5.03;;
65368;SDS011;51970;53.484;49.488;2023-09-08T03:46:49;12.43;;;4.38;;
65368;SDS011;51970;53.484;49.488;2023-09-08T03:49:17;16.90;;;5.95;;
65368;SDS011;51970;53.484;49.488;2023-09-08T03:51:44;13.63;;;5.30;;
65368;SDS011;51970;53.484;49.488;2023-09-08T03:54:10;17.90;;;6.97;;
65368;SDS011;51970;53.484;49.488;2023-09-08T03:56:36;20.55;;;8.23;;
65368;SDS011;51970;53.484;49.488;2023-09-08T03:59:02;24.08;;;7.93;;
65368;SDS011;51970;53.484;49.488;2023-09-08T04:01:28;15.13;;;6.00;;
65368;SDS011;51970;53.484;49.488;2023-09-08T04:03:54;13.10;;;4.38;;
65368;SDS011;51970;53.484;49.488;2023-09-08T04:06:20;11.20;;;4.07;;
65368;SDS011;51970;53.484;49.488;2023-09-08T04:08:46;9.80;;;2.75;;
65368;SDS011;51970;53.484;49.488;2023-09-08T04:11:12;11.45;;;2.72;;
65368;SDS011;51970;53.484;49.488;2023-09-08T04:13:38;12.00;;;3.00;;
65368;SDS011;51970;53.484;49.488;2023-09-08T04:16:04;8.43;;;3.40;;
65368;SDS011;51970;53.484;49.488;2023-09-08T04:18:30;10.10;;;3.08;;
65368;SDS011;51970;53.484;49.488;2023-09-08T04:20:56;6.22;;;1.92;;
65368;SDS011;51970;53.484;49.488;2023-09-08T04:23:23;5.15;;;1.38;;
65368;SDS011;51970;53.484;49.488;2023-09-08T04:25:49;10.75;;;2.28;;
65368;SDS011;51970;53.484;49.488;2023-09-08T04:28:15;7.90;;;3.13;;
65368;SDS011;51970;53.484;49.488;2023-09-08T04:30:41;5.68;;;2.58;;
65368;SDS011;51970;53.484;49.488;2023-09-08T04:33:07;10.00;;;2.25;;
65368;SDS011;51970;53.484;49.488;2023-09-08T04:35:33;8.43;;;2.05;;
65368;SDS011;51970;53.484;49.488;2023-09-08T04:37:59;8.43;;;2.75;;
65368;SDS011;51970;53.484;49.488;2023-09-08T04:40:25;8.55;;;2.65;;
65368;SDS011;51970;53.484;49.488;2023-09-08T04:42:51;9.98;;;2.63;;
65368;SDS011;51970;53.484;49.488;2023-09-08T04:45:17;5.47;;;2.50;;
65368;SDS011;51970;53.484;49.488;2023-09-08T04:47:43;5.10;;;2.00;;
65368;SDS011;51970;53.484;49.488;2023-09-08T04:50:09;5.70;;;2.08;;
65368;SDS011;51970;53.484;49.488;2023-09-08T04:52:35;4.35;;;1.80;;
65368;SDS011;51970;53.484;49.488;2023-09-08T04:55:01;4.85;;;2.22;;
65368;SDS011;51970;53.484;49.488;2023-09-08T04:57:28;6.40;;;2.22;;
65368;SDS011;51970;53.484;49.488;2023-09-08T04:59:54;6.85;;;2.35;;
65368;SDS011;51970;53.484;49.488;2023-09-08T05:02:20;6.63;;;2.83;;
65368;SDS011;51970;53.484;49.488;2023-09-08T05:04:46;6.38;;;1.63;;
65368;SDS011;51970;53.484;49.488;2023-09-08T05:07:12;6.07;;;2.17;;
65368;SDS011;51970;53.484;49.488;2023-09-08T05:09:38;6.75;;;1.80;;
65368;SDS011;51970;53.484;49.488;2023-09-08T05:12:04;8.00;;;2.25;;
65368;SDS011;51970;53.484;49.488;2023-09-08T05:14:31;6.75;;;1.67;;
65368;SDS011;51970;53.484;49.488;2023-09-08T05:16:57;6.45;;;2.55;;
65368;SDS011;51970;53.484;49.488;2023-09-08T05:19:23;7.45;;;2.47;;
65368;SDS011;51970;53.484;49.488;2023-09-08T05:21:53;5.28;;;2.33;;
65368;SDS011;51970;53.484;49.488;2023-09-08T05:24:20;7.03;;;1.60;;
65368;SDS011;51970;53.484;49.488;2023-09-08T05:26:47;12.57;;;2.05;;
65368;SDS011;51970;53.484;49.488;2023-09-08T05:29:13;11.15;;;3.65;;
65368;SDS011;51970;53.484;49.488;2023-09-08T05:31:39;9.13;;;3.03;;
65368;SDS011;51970;53.484;49.488;2023-09-08T05:34:06;8.85;;;2.53;;
65368;SDS011;51970;53.484;49.488;2023-09-08T05:36:32;8.30;;;3.50;;
65368;SDS011;51970;53.484;49.488;2023-09-08T05:39:01;6.90;;;2.92;;
65368;SDS011;51970;53.484;49.488;2023-09-08T05:41:28;9.45;;;2.88;;
65368;SDS011;51970;53.484;49.488;2023-09-08T05:43:54;13.27;;;3.03;;
65368;SDS011;51970;53.484;49.488;2023-09-08T05:46:20;13.38;;;4.20;;
65368;SDS011;51970;53.484;49.488;2023-09-08T05:48:47;13.18;;;3.53;;
65368;SDS011;51970;53.484;49.488;2023-09-08T05:51:13;12.65;;;3.92;;
65368;SDS011;51970;53.484;49.488;2023-09-08T05:53:40;11.25;;;2.05;;
65368;SDS011;51970;53.484;49.488;2023-09-08T05:56:07;9.30;;;2.92;;
65368;SDS011;51970;53.484;49.488;2023-09-08T05:58:33;8.43;;;2.58;;
65368;SDS011;51970;53.484;49.488;2023-09-08T06:01:03;9.07;;;2.38;;
65368;SDS011;51970;53.484;49.488;2023-09-08T06:03:29;6.55;;;2.40;;
65368;SDS011;51970;53.484;49.488;2023-09-08T06:05:56;6.93;;;2.45;;
65368;SDS011;51970;53.484;49.488;2023-09-08T06:08:23;6.28;;;2.42;;
65368;SDS011;51970;53.484;49.488;2023-09-08T06:10:50;7.40;;;2.65;;
65368;SDS011;51970;53.484;49.488;2023-09-08T06:13:16;7.45;;;2.45;;
65368;SDS011;51970;53.484;49.488;2023-09-08T06:15:42;5.63;;;1.60;;
65368;SDS011;51970;53.484;49.488;2023-09-08T06:18:08;7.63;;;2.65;;
65368;SDS011;51970;53.484;49.488;2023-09-08T06:20:35;5.82;;;1.85;;
65368;SDS011;51970;53.484;49.488;2023-09-08T06:23:01;5.78;;;2.15;;
65368;SDS011;51970;53.484;49.488;2023-09-08T06:25:27;7.38;;;1.42;;
65368;SDS011;51970;53.484;49.488;2023-09-08T06:27:56;3.80;;;1.02;;
65368;SDS011;51970;53.484;49.488;2023-09-08T06:30:22;6.43;;;1.75;;
65368;SDS011;51970;53.484;49.488;2023-09-08T06:32:48;9.48;;;2.67;;
65368;SDS011;51970;53.484;49.488;2023-09-08T06:35:14;7.22;;;2.08;;
65368;SDS011;51970;53.484;49.488;2023-09-08T06:37:40;4.13;;;1.60;;
65368;SDS011;51970;53.484;49.488;2023-09-08T06:40:06;7.28;;;1.83;;
65368;SDS011;51970;53.484;49.488;2023-09-08T06:42:32;5.80;;;1.52;;
65368;SDS011;51970;53.484;49.488;2023-09-08T06:44:59;6.40;;;1.70;;
65368;SDS011;51970;53.484;49.488;2023-09-08T06:47:25;5.88;;;1.30;;
65368;SDS011;51970;53.484;49.488;2023-09-08T06:49:51;5.30;;;1.73;;
65368;SDS011;51970;53.484;49.488;2023-09-08T06:52:17;3.83;;;1.15;;
65368;SDS011;51970;53.484;49.488;2023-09-08T06:54:43;5.30;;;0.90;;
65368;SDS011;51970;53.484;49.488;2023-09-08T06:57:12;6.18;;;1.65;;
65368;SDS011;51970;53.484;49.488;2023-09-08T06:59:39;10.45;;;2.08;;
65368;SDS011;51970;53.484;49.488;2023-09-08T07:02:06;5.85;;;2.05;;
65368;SDS011;51970;53.484;49.488;2023-09-08T07:04:32;7.57;;;2.28;;
65368;SDS011;51970;53.484;49.488;2023-09-08T07:06:59;10.73;;;2.25;;
65368;SDS011;51970;53.484;49.488;2023-09-08T07:09:27;9.85;;;2.95;;
65368;SDS011;51970;53.484;49.488;2023-09-08T07:11:54;10.32;;;2.58;;
65368;SDS011;51970;53.484;49.488;2023-09-08T07:14:20;7.45;;;2.80;;
65368;SDS011;51970;53.484;49.488;2023-09-08T07:16:46;10.35;;;2.78;;
65368;SDS011;51970;53.484;49.488;2023-09-08T07:19:12;9.30;;;1.90;;
65368;SDS011;51970;53.484;49.488;2023-09-08T07:21:38;14.80;;;2.65;;
65368;SDS011;51970;53.484;49.488;2023-09-08T07:24:04;4.85;;;2.22;;
65368;SDS011;51970;53.484;49.488;2023-09-08T07:26:31;4.00;;;1.92;;
65368;SDS011;51970;53.484;49.488;2023-09-08T07:28:57;4.50;;;1.02;;
65368;SDS011;51970;53.484;49.488;2023-09-08T07:31:23;5.03;;;1.83;;
65368;SDS011;51970;53.484;49.488;2023-09-08T07:33:50;4.85;;;1.85;;
65368;SDS011;51970;53.484;49.488;2023-09-08T07:36:16;5.40;;;1.77;;
65368;SDS011;51970;53.484;49.488;2023-09-08T07:38:42;3.08;;;1.50;;
65368;SDS011;51970;53.484;49.488;2023-09-08T07:41:09;4.25;;;1.65;;
65368;SDS011;51970;53.484;49.488;2023-09-08T07:43:35;3.67;;;1.17;;
65368;SDS011;51970;53.484;49.488;2023-09-08T07:46:06;4.63;;;1.30;;
65368;SDS011;51970;53.484;49.488;2023-09-08T07:48:33;6.10;;;1.98;;
65368;SDS011;51970;53.484;49.488;2023-09-08T07:50:59;3.53;;;1.27;;
65368;SDS011;51970;53.484;49.488;2023-09-08T07:53:26;6.68;;;1.77;;
65368;SDS011;51970;53.484;49.488;2023-09-08T07:55:53;5.65;;;1.02;;
65368;SDS011;51970;53.484;49.488;2023-09-08T07:58:19;7.72;;;2.17;;
65368;SDS011;51970;53.484;49.488;2023-09-08T08:00:45;4.97;;;1.80;;
65368;SDS011;51970;53.484;49.488;2023-09-08T08:03:11;6.90;;;2.05;;
65368;SDS011;51970;53.484;49.488;2023-09-08T08:05:38;5.57;;;1.83;;
65368;SDS011;51970;53.484;49.488;2023-09-08T08:08:04;4.70;;;1.83;;
65368;SDS011;51970;53.484;49.488;2023-09-08T08:10:32;4.70;;;1.80;;
65368;SDS011;51970;53.484;49.488;2023-09-08T08:12:58;4.22;;;2.15;;
65368;SDS011;51970;53.484;49.488;2023-09-08T08:15:34;5.50;;;1.38;;
65368;SDS011;51970;53.484;49.488;2023-09-08T08:18:03;5.97;;;2.00;;
65368;SDS011;51970;53.484;49.488;2023-09-08T08:20:32;10.65;;;3.10;;
65368;SDS011;51970;53.484;49.488;2023-09-08T08:23:02;7.82;;;1.77;;
65368;SDS011;51970;53.484;49.488;2023-09-08T08:25:29;8.82;;;2.20;;
65368;SDS011;51970;53.484;49.488;2023-09-08T08:27:57;5.88;;;1.70;;
65368;SDS011;51970;53.484;49.488;2023-09-08T08:30:24;8.70;;;2.00;;
65368;SDS011;51970;53.484;49.488;2023-09-08T08:32:50;7.43;;;2.17;;
65368;SDS011;51970;53.484;49.488;2023-09-08T08:35:19;8.02;;;2.17;;
65368;SDS011;51970;53.484;49.488;2023-09-08T08:37:45;6.45;;;1.45;;
65368;SDS011;51970;53.484;49.488;2023-09-08T08:40:15;8.80;;;2.10;;
65368;SDS011;51970;53.484;49.488;2023-09-08T08:42:41;6.28;;;2.15;;
65368;SDS011;51970;53.484;49.488;2023-09-08T08:45:08;6.88;;;1.58;;
65368;SDS011;51970;53.484;49.488;2023-09-08T08:47:34;6.43;;;2.42;;
65368;SDS011;51970;53.484;49.488;2023-09-08T08:50:01;5.53;;;1.85;;
65368;SDS011;51970;53.484;49.488;2023-09-08T08:52:29;6.13;;;2.75;;
65368;SDS011;51970;53.484;49.488;2023-09-08T08:54:56;5.90;;;2.03;;
65368;SDS011;51970;53.484;49.488;2023-09-08T08:57:22;5.15;;;1.13;;
65368;SDS011;51970;53.484;49.488;2023-09-08T08:59:52;5.40;;;2.42;;
65368;SDS011;51970;53.484;49.488;2023-09-08T09:02:18;6.80;;;1.98;;
65368;SDS011;51970;53.484;49.488;2023-09-08T09:04:45;6.35;;;1.88;;
65368;SDS011;51970;53.484;49.488;2023-09-08T09:07:12;3.83;;;1.17;;
65368;SDS011;51970;53.484;49.488;2023-09-08T09:09:39;5.18;;;1.17;;
65368;SDS011;51970;53.484;49.488;2023-09-08T09:12:06;5.30;;;1.80;;
65368;SDS011;51970;53.484;49.488;2023-09-08T09:14:33;4.10;;;1.13;;
65368;SDS011;51970;53.484;49.488;2023-09-08T09:17:00;3.65;;;1.52;;
65368;SDS011;51970;53.484;49.488;2023-09-08T09:19:28;5.05;;;1.63;;
65368;SDS011;51970;53.484;49.488;2023-09-08T09:21:58;4.55;;;1.13;;
65368;SDS011;51970;53.484;49.488;2023-09-08T09:24:34;3.80;;;0.88;;
65368;SDS011;51970;53.484;49.488;2023-09-08T09:29:48;3.47;;;1.55;;
65368;SDS011;51970;53.484;49.488;2023-09-08T09:32:15;5.82;;;1.90;;
65368;SDS011;51970;53.484;49.488;2023-09-08T09:34:49;4.35;;;1.30;;
65368;SDS011;51970;53.484;49.488;2023-09-08T09:37:19;16.60;;;6.93;;
65368;SDS011;51970;53.484;49.488;2023-09-08T09:39:49;7.07;;;1.75;;
65368;SDS011;51970;53.484;49.488;2023-09-08T09:42:16;4.57;;;1.70;;
65368;SDS011;51970;53.484;49.488;2023-09-08T09:44:42;4.45;;;1.27;;
65368;SDS011;51970;53.484;49.488;2023-09-08T09:47:09;6.35;;;2.05;;
65368;SDS011;51970;53.484;49.488;2023-09-08T09:49:42;5.57;;;1.98;;
65368;SDS011;51970;53.484;49.488;2023-09-08T09:52:11;4.35;;;1.40;;
65368;SDS011;51970;53.484;49.488;2023-09-08T09:54:41;9.13;;;1.45;;
65368;SDS011;51970;53.484;49.488;2023-09-08T09:57:12;9.63;;;1.73;;
65368;SDS011;51970;53.484;49.488;2023-09-08T09:59:42;4.18;;;1.90;;
65368;SDS011;51970;53.484;49.488;2023-09-08T10:02:12;5.07;;;1.52;;
65368;SDS011;51970;53.484;49.488;2023-09-08T10:04:42;4.35;;;1.17;;
65368;SDS011;51970;53.484;49.488;2023-09-08T10:07:09;5.13;;;1.83;;
65368;SDS011;51970;53.484;49.488;2023-09-08T10:09:35;6.30;;;2.33;;
65368;SDS011;51970;53.484;49.488;2023-09-08T10:12:05;3.72;;;1.05;;
65368;SDS011;51970;53.484;49.488;2023-09-08T10:14:35;5.95;;;2.97;;
65368;SDS011;51970;53.484;49.488;2023-09-08T10:17:02;5.47;;;1.77;;
65368;SDS011;51970;53.484;49.488;2023-09-08T10:19:31;4.10;;;1.73;;
65368;SDS011;51970;53.484;49.488;2023-09-08T10:22:04;4.97;;;1.23;;
65368;SDS011;51970;53.484;49.488;2023-09-08T10:24:35;6.95;;;1.70;;
65368;SDS011;51970;53.484;49.488;2023-09-08T10:27:04;6.00;;;1.52;;
65368;SDS011;51970;53.484;49.488;2023-09-08T10:29:37;3.78;;;1.95;;
65368;SDS011;51970;53.484;49.488;2023-09-08T10:32:04;7.25;;;2.25;;
65368;SDS011;51970;53.484;49.488;2023-09-08T10:34:33;4.80;;;1.25;;
65368;SDS011;51970;53.484;49.488;2023-09-08T10:37:00;6.43;;;1.98;;
65368;SDS011;51970;53.484;49.488;2023-09-08T10:39:29;5.82;;;1.55;;
65368;SDS011;51970;53.484;49.488;2023-09-08T10:47:20;3.38;;;1.25;;
65368;SDS011;51970;53.484;49.488;2023-09-08T10:49:48;4.22;;;1.55;;
65368;SDS011;51970;53.484;49.488;2023-09-08T10:52:21;6.78;;;1.35;;
65368;SDS011;51970;53.484;49.488;2023-09-08T10:54:51;4.32;;;1.50;;
65368;SDS011;51970;53.484;49.488;2023-09-08T10:57:23;5.43;;;1.45;;
65368;SDS011;51970;53.484;49.488;2023-09-08T10:59:51;3.65;;;1.33;;
65368;SDS011;51970;53.484;49.488;2023-09-08T11:02:36;4.20;;;2.25;;
65368;SDS011;51970;53.484;49.488;2023-09-08T11:05:11;2.83;;;1.35;;
65368;SDS011;51970;53.484;49.488;2023-09-08T11:07:42;19.23;;;7.18;;
65368;SDS011;51970;53.484;49.488;2023-09-08T11:10:10;6.22;;;2.72;;
65368;SDS011;51970;53.484;49.488;2023-09-08T11:12:37;4.93;;;1.27;;
65368;SDS011;51970;53.484;49.488;2023-09-08T11:15:04;4.72;;;1.92;;
65368;SDS011;51970;53.484;49.488;2023-09-08T11:17:34;24.02;;;15.27;;
65368;SDS011;51970;53.484;49.488;2023-09-08T11:20:05;11.23;;;6.45;;
65368;SDS011;51970;53.484;49.488;2023-09-08T11:22:37;11.25;;;2.20;;
65368;SDS011;51970;53.484;49.488;2023-09-08T11:25:08;16.50;;;10.05;;
65368;SDS011;51970;53.484;49.488;2023-09-08T11:27:38;11.63;;;6.95;;
65368;SDS011;51970;53.484;49.488;2023-09-08T11:30:05;6.68;;;2.40;;
65368;SDS011;51970;53.484;49.488;2023-09-08T11:32:34;9.02;;;2.90;;
65368;SDS011;51970;53.484;49.488;2023-09-08T11:35:03;6.25;;;1.50;;
65368;SDS011;51970;53.484;49.488;2023-09-08T11:37:34;5.38;;;1.48;;
65368;SDS011;51970;53.484;49.488;2023-09-08T11:40:05;5.18;;;1.20;;
65368;SDS011;51970;53.484;49.488;2023-09-08T11:42:35;9.15;;;2.47;;
65368;SDS011;51970;53.484;49.488;2023-09-08T11:45:01;14.40;;;8.73;;
65368;SDS011;51970;53.484;49.488;2023-09-08T11:47:29;26.05;;;5.93;;
65368;SDS011;51970;53.484;49.488;2023-09-08T11:49:55;9.13;;;4.32;;
65368;SDS011;51970;53.484;49.488;2023-09-08T11:52:23;4.75;;;1.60;;
65368;SDS011;51970;53.484;49.488;2023-09-08T11:54:49;7.88;;;2.28;;
65368;SDS011;51970;53.484;49.488;2023-09-08T11:57:16;5.43;;;1.77;;
65368;SDS011;51970;53.484;49.488;2023-09-08T11:59:43;5.43;;;1.40;;
65368;SDS011;51970;53.484;49.488;2023-09-08T12:02:14;7.80;;;1.88;;
65368;SDS011;51970;53.484;49.488;2023-09-08T12:04:40;3.63;;;1.50;;
65368;SDS011;51970;53.484;49.488;2023-09-08T12:07:11;9.45;;;3.90;;
65368;SDS011;51970;53.484;49.488;2023-09-08T12:09:42;7.57;;;2.05;;
65368;SDS011;51970;53.484;49.488;2023-09-08T12:12:11;4.45;;;1.70;;
65368;SDS011;51970;53.484;49.488;2023-09-08T12:14:41;6.35;;;1.15;;
65368;SDS011;51970;53.484;49.488;2023-09-08T12:17:07;4.88;;;2.53;;
65368;SDS011;51970;53.484;49.488;2023-09-08T12:19:34;10.15;;;3.60;;
65368;SDS011;51970;53.484;49.488;2023-09-08T12:22:04;7.20;;;4.25;;
65368;SDS011;51970;53.484;49.488;2023-09-08T12:27:18;8.57;;;1.65;;
65368;SDS011;51970;53.484;49.488;2023-09-08T12:29:52;6.57;;;2.08;;
65368;SDS011;51970;53.484;49.488;2023-09-08T12:32:28;3.75;;;1.58;;
65368;SDS011;51970;53.484;49.488;2023-09-08T12:34:55;5.57;;;1.40;;
65368;SDS011;51970;53.484;49.488;2023-09-08T12:37:22;9.10;;;1.40;;
65368;SDS011;51970;53.484;49.488;2023-09-08T12:39:49;6.57;;;1.55;;
65368;SDS011;51970;53.484;49.488;2023-09-08T12:42:15;6.20;;;1.92;;
65368;SDS011;51970;53.484;49.488;2023-09-08T12:44:41;3.50;;;1.25;;
65368;SDS011;51970;53.484;49.488;2023-09-08T12:47:09;4.28;;;1.48;;
65368;SDS011;51970;53.484;49.488;2023-09-08T12:49:39;4.45;;;1.80;;
65368;SDS011;51970;53.484;49.488;2023-09-08T12:52:05;3.60;;;1.60;;
65368;SDS011;51970;53.484;49.488;2023-09-08T12:54:32;5.22;;;2.60;;
65368;SDS011;51970;53.484;49.488;2023-09-08T12:56:58;5.72;;;1.27;;
65368;SDS011;51970;53.484;49.488;2023-09-08T12:59:24;8.57;;;1.70;;
65368;SDS011;51970;53.484;49.488;2023-09-08T13:01:50;5.50;;;1.67;;
65368;SDS011;51970;53.484;49.488;2023-09-08T13:04:16;4.28;;;1.50;;
65368;SDS011;51970;53.484;49.488;2023-09-08T13:06:42;3.00;;;1.30;;
65368;SDS011;51970;53.484;49.488;2023-09-08T13:09:08;12.90;;;5.80;;
65368;SDS011;51970;53.484;49.488;2023-09-08T13:11:34;33.17;;;18.75;;
65368;SDS011;51970;53.484;49.488;2023-09-08T13:14:00;10.20;;;5.47;;
65368;SDS011;51970;53.484;49.488;2023-09-08T13:16:26;14.35;;;4.75;;
65368;SDS011;51970;53.484;49.488;2023-09-08T13:18:52;7.72;;;4.00;;
65368;SDS011;51970;53.484;49.488;2023-09-08T13:21:18;8.15;;;3.58;;
65368;SDS011;51970;53.484;49.488;2023-09-08T13:23:45;8.63;;;4.32;;
65368;SDS011;51970;53.484;49.488;2023-09-08T13:26:11;5.93;;;2.38;;
65368;SDS011;51970;53.484;49.488;2023-09-08T13:28:37;10.48;;;5.55;;
65368;SDS011;51970;53.484;49.488;2023-09-08T13:31:04;10.80;;;5.85;;
65368;SDS011;51970;53.484;49.488;2023-09-08T13:33:30;6.82;;;2.67;;
65368;SDS011;51970;53.484;49.488;2023-09-08T13:35:56;4.55;;;1.70;;
65368;SDS011;51970;53.484;49.488;2023-09-08T13:38:22;3.63;;;1.20;;
65368;SDS011;51970;53.484;49.488;2023-09-08T13:40:49;3.15;;;1.17;;
65368;SDS011;51970;53.484;49.488;2023-09-08T13:43:15;11.45;;;2.33;;
65368;SDS011;51970;53.484;49.488;2023-09-08T13:45:42;6.78;;;1.38;;
65368;SDS011;51970;53.484;49.488;2023-09-08T13:48:08;4.90;;;1.65;;
65368;SDS011;51970;53.484;49.488;2023-09-08T13:50:34;8.10;;;1.23;;
65368;SDS011;51970;53.484;49.488;2023-09-08T13:53:01;4.50;;;1.35;;
65368;SDS011;51970;53.484;49.488;2023-09-08T13:55:27;3.80;;;1.15;;
65368;SDS011;51970;53.484;49.488;2023-09-08T13:57:53;5.03;;;1.70;;
65368;SDS011;51970;53.484;49.488;2023-09-08T14:00:19;2.78;;;0.88;;
65368;SDS011;51970;53.484;49.488;2023-09-08T14:02:46;3.45;;;1.60;;
65368;SDS011;51970;53.484;49.488;2023-09-08T14:05:13;3.28;;;1.08;;
65368;SDS011;51970;53.484;49.488;2023-09-08T14:07:40;5.20;;;1.00;;
65368;SDS011;51970;53.484;49.488;2023-09-08T14:10:06;4.63;;;1.48;;
65368;SDS011;51970;53.484;49.488;2023-09-08T14:12:33;4.53;;;1.73;;
65368;SDS011;51970;53.484;49.488;2023-09-08T14:15:00;4.45;;;1.38;;
65368;SDS011;51970;53.484;49.488;2023-09-08T14:17:29;5.60;;;2.05;;
65368;SDS011;51970;53.484;49.488;2023-09-08T14:19:55;4.03;;;1.58;;
65368;SDS011;51970;53.484;49.488;2023-09-08T14:22:21;5.07;;;2.28;;
65368;SDS011;51970;53.484;49.488;2023-09-08T14:24:48;8.27;;;2.20;;
65368;SDS011;51970;53.484;49.488;2023-09-08T14:27:14;7.30;;;2.00;;
65368;SDS011;51970;53.484;49.488;2023-09-08T14:29:40;4.50;;;1.73;;
65368;SDS011;51970;53.484;49.488;2023-09-08T14:32:06;8.90;;;2.40;;
65368;SDS011;51970;53.484;49.488;2023-09-08T14:34:32;5.35;;;1.58;;
65368;SDS011;51970;53.484;49.488;2023-09-08T14:36:58;6.50;;;2.17;;
65368;SDS011;51970;53.484;49.488;2023-09-08T14:39:24;10.13;;;2.90;;
65368;SDS011;51970;53.484;49.488;2023-09-08T14:41:51;6.60;;;3.08;;
65368;SDS011;51970;53.484;49.488;2023-09-08T14:44:19;11.00;;;2.20;;
65368;SDS011;51970;53.484;49.488;2023-09-08T14:46:46;7.85;;;3.22;;